sensor_id;sensor_type;location;lat;lon;timestamp;pressure;altitude;pressure_sealevel;temperature;humidity
61026;BME280;46911;32.650;-16.902;2023-05-20T00:01:08;101874.63;;;18.18;49.91
61026;BME280;46911;32.650;-16.902;2023-05-20T00:03:15;101880.38;;;18.25;49.75
61026;BME280;46911;32.650;-16.902;2023-05-20T00:05:16;101884.59;;;18.18;50.23
61026;BME280;46911;32.650;-16.902;2023-05-20T00:07:17;101864.72;;;18.07;50.55
61026;BME280;46911;32.650;-16.902;2023-05-20T00:09:20;101875.28;;;18.11;50.98
61026;BME280;46911;32.650;-16.902;2023-05-20T00:11:21;101877.09;;;18.10;51.29
61026;BME280;46911;32.650;-16.902;2023-05-20T00:13:24;101847.56;;;17.97;51.71
61026;BME280;46911;32.650;-16.902;2023-05-20T00:15:25;101846.16;;;17.91;51.90
61026;BME280;46911;32.650;-16.902;2023-05-20T00:17:28;101847.78;;;17.94;52.25
61026;BME280;46911;32.650;-16.902;2023-05-20T00:19:31;101849.88;;;17.90;52.64
61026;BME280;46911;32.650;-16.902;2023-05-20T00:21:36;101863.28;;;17.92;52.91
61026;BME280;46911;32.650;-16.902;2023-05-20T00:23:39;101865.06;;;17.91;53.17
61026;BME280;46911;32.650;-16.902;2023-05-20T00:25:42;101859.44;;;17.83;53.16
61026;BME280;46911;32.650;-16.902;2023-05-20T00:27:46;101868.78;;;17.90;53.52
61026;BME280;46911;32.650;-16.902;2023-05-20T00:29:50;101862.50;;;17.90;53.76
61026;BME280;46911;32.650;-16.902;2023-05-20T00:31:53;101840.19;;;17.77;53.91
61026;BME280;46911;32.650;-16.902;2023-05-20T00:33:56;101851.22;;;17.85;54.04
61026;BME280;46911;32.650;-16.902;2023-05-20T00:35:57;101835.28;;;17.70;54.34
61026;BME280;46911;32.650;-16.902;2023-05-20T00:38:00;101851.22;;;17.85;54.52
61026;BME280;46911;32.650;-16.902;2023-05-20T00:40:06;101849.63;;;17.82;54.71
61026;BME280;46911;32.650;-16.902;2023-05-20T00:42:07;101851.22;;;17.85;54.74
61026;BME280;46911;32.650;-16.902;2023-05-20T00:44:08;101852.22;;;17.84;54.98
61026;BME280;46911;32.650;-16.902;2023-05-20T00:46:10;101848.75;;;17.82;55.14
61026;BME280;46911;32.650;-16.902;2023-05-20T00:48:16;101847.53;;;17.86;55.32
61026;BME280;46911;32.650;-16.902;2023-05-20T00:50:17;101843.84;;;17.87;54.66
61026;BME280;46911;32.650;-16.902;2023-05-20T00:52:18;101844.47;;;17.90;54.65
61026;BME280;46911;32.650;-16.902;2023-05-20T00:54:21;101841.88;;;17.89;54.14
61026;BME280;46911;32.650;-16.902;2023-05-20T00:56:24;101845.97;;;17.95;53.44
61026;BME280;46911;32.650;-16.902;2023-05-20T00:58:26;101813.94;;;17.79;53.18
61026;BME280;46911;32.650;-16.902;2023-05-20T01:00:29;101837.63;;;17.98;52.75
61026;BME280;46911;32.650;-16.902;2023-05-20T01:02:33;101816.38;;;17.93;52.80
61026;BME280;46911;32.650;-16.902;2023-05-20T01:04:36;101830.00;;;18.03;52.92
61026;BME280;46911;32.650;-16.902;2023-05-20T01:06:38;101809.28;;;17.92;53.06
61026;BME280;46911;32.650;-16.902;2023-05-20T01:08:39;101806.31;;;17.95;52.76
61026;BME280;46911;32.650;-16.902;2023-05-20T01:10:41;101817.97;;;18.07;53.18
61026;BME280;46911;32.650;-16.902;2023-05-20T01:12:48;101810.00;;;17.94;53.94
61026;BME280;46911;32.650;-16.902;2023-05-20T01:14:56;101793.81;;;17.94;54.45
61026;BME280;46911;32.650;-16.902;2023-05-20T01:17:00;101814.53;;;18.05;55.27
61026;BME280;46911;32.650;-16.902;2023-05-20T01:19:21;101813.19;;;17.99;55.61
61026;BME280;46911;32.650;-16.902;2023-05-20T01:21:29;101809.78;;;17.97;55.78
61026;BME280;46911;32.650;-16.902;2023-05-20T01:23:37;101797.38;;;17.95;55.79
61026;BME280;46911;32.650;-16.902;2023-05-20T01:25:42;101774.91;;;17.83;55.73
61026;BME280;46911;32.650;-16.902;2023-05-20T01:27:46;101778.84;;;17.79;55.46
61026;BME280;46911;32.650;-16.902;2023-05-20T01:29:49;101772.09;;;17.84;54.45
61026;BME280;46911;32.650;-16.902;2023-05-20T01:31:56;101767.66;;;17.83;54.34
61026;BME280;46911;32.650;-16.902;2023-05-20T01:33:58;101771.25;;;17.84;53.90
61026;BME280;46911;32.650;-16.902;2023-05-20T01:36:03;101780.53;;;17.91;53.72
61026;BME280;46911;32.650;-16.902;2023-05-20T01:38:06;101781.28;;;17.93;53.98
61026;BME280;46911;32.650;-16.902;2023-05-20T01:40:11;101782.28;;;17.92;54.17
61026;BME280;46911;32.650;-16.902;2023-05-20T01:42:16;101751.59;;;17.82;54.57
61026;BME280;46911;32.650;-16.902;2023-05-20T01:44:22;101750.88;;;17.80;54.60
61026;BME280;46911;32.650;-16.902;2023-05-20T01:46:23;101775.16;;;17.91;55.00
61026;BME280;46911;32.650;-16.902;2023-05-20T01:48:28;101762.81;;;17.77;55.06
61026;BME280;46911;32.650;-16.902;2023-05-20T01:50:29;101750.63;;;17.71;55.16
61026;BME280;46911;32.650;-16.902;2023-05-20T01:52:36;101749.78;;;17.71;55.59
61026;BME280;46911;32.650;-16.902;2023-05-20T01:54:40;101756.66;;;17.75;55.54
61026;BME280;46911;32.650;-16.902;2023-05-20T01:56:41;101761.44;;;17.83;56.02
61026;BME280;46911;32.650;-16.902;2023-05-20T01:58:48;101757.75;;;17.84;55.99
61026;BME280;46911;32.650;-16.902;2023-05-20T02:00:48;101753.56;;;17.80;56.60
61026;BME280;46911;32.650;-16.902;2023-05-20T02:02:49;101731.28;;;17.66;56.98
61026;BME280;46911;32.650;-16.902;2023-05-20T02:04:53;101735.34;;;17.61;57.50
61026;BME280;46911;32.650;-16.902;2023-05-20T02:06:54;101744.53;;;17.69;58.05
61026;BME280;46911;32.650;-16.902;2023-05-20T02:08:57;101744.53;;;17.69;58.76
61026;BME280;46911;32.650;-16.902;2023-05-20T02:10:58;101725.78;;;17.56;59.10
61026;BME280;46911;32.650;-16.902;2023-05-20T02:13:01;101732.78;;;17.59;59.12
61026;BME280;46911;32.650;-16.902;2023-05-20T02:15:05;101723.22;;;17.55;58.96
61026;BME280;46911;32.650;-16.902;2023-05-20T02:17:06;101740.38;;;17.65;58.51
61026;BME280;46911;32.650;-16.902;2023-05-20T02:19:07;101726.75;;;17.55;57.58
61026;BME280;46911;32.650;-16.902;2023-05-20T02:21:12;101735.47;;;17.59;57.29
61026;BME280;46911;32.650;-16.902;2023-05-20T02:23:13;101711.31;;;17.46;56.90
61026;BME280;46911;32.650;-16.902;2023-05-20T02:25:16;101735.47;;;17.59;56.18
61026;BME280;46911;32.650;-16.902;2023-05-20T02:27:17;101713.78;;;17.49;56.21
61026;BME280;46911;32.650;-16.902;2023-05-20T02:29:18;101716.84;;;17.45;55.74
61026;BME280;46911;32.650;-16.902;2023-05-20T02:31:23;101719.06;;;17.39;55.33
61026;BME280;46911;32.650;-16.902;2023-05-20T02:33:26;101733.41;;;17.40;55.50
61026;BME280;46911;32.650;-16.902;2023-05-20T02:35:31;101729.84;;;17.39;55.77
61026;BME280;46911;32.650;-16.902;2023-05-20T02:37:32;101731.81;;;17.37;55.52
61026;BME280;46911;32.650;-16.902;2023-05-20T02:39:34;101706.56;;;17.27;54.97
61026;BME280;46911;32.650;-16.902;2023-05-20T02:41:34;101727.78;;;17.32;55.14
61026;BME280;46911;32.650;-16.902;2023-05-20T02:43:39;101711.25;;;17.25;54.73
61026;BME280;46911;32.650;-16.902;2023-05-20T02:45:42;101715.41;;;17.29;54.77
61026;BME280;46911;32.650;-16.902;2023-05-20T02:47:43;101692.00;;;17.18;53.66
61026;BME280;46911;32.650;-16.902;2023-05-20T02:49:46;101699.47;;;17.15;53.84
61026;BME280;46911;32.650;-16.902;2023-05-20T02:51:49;101719.81;;;17.19;53.91
61026;BME280;46911;32.650;-16.902;2023-05-20T02:53:57;101703.50;;;17.20;53.28
61026;BME280;46911;32.650;-16.902;2023-05-20T02:56:00;101685.16;;;17.03;53.30
61026;BME280;46911;32.650;-16.902;2023-05-20T02:58:06;101698.84;;;17.11;53.53
61026;BME280;46911;32.650;-16.902;2023-05-20T03:00:08;101684.78;;;16.96;53.72
61026;BME280;46911;32.650;-16.902;2023-05-20T03:02:18;101697.88;;;17.01;53.99
61026;BME280;46911;32.650;-16.902;2023-05-20T03:04:24;101693.72;;;16.97;54.10
61026;BME280;46911;32.650;-16.902;2023-05-20T03:06:29;101671.88;;;16.77;53.96
61026;BME280;46911;32.650;-16.902;2023-05-20T03:08:34;101669.78;;;16.69;54.15
61026;BME280;46911;32.650;-16.902;2023-05-20T03:10:37;101669.03;;;16.67;54.22
61026;BME280;46911;32.650;-16.902;2023-05-20T03:12:41;101683.13;;;16.71;54.19
61026;BME280;46911;32.650;-16.902;2023-05-20T03:14:42;101692.06;;;16.71;54.38
61026;BME280;46911;32.650;-16.902;2023-05-20T03:16:43;101669.75;;;16.58;54.55
61026;BME280;46911;32.650;-16.902;2023-05-20T03:18:46;101682.88;;;16.63;54.33
61026;BME280;46911;32.650;-16.902;2023-05-20T03:20:50;101674.56;;;16.54;54.49
61026;BME280;46911;32.650;-16.902;2023-05-20T03:22:54;101678.34;;;16.63;54.13
61026;BME280;46911;32.650;-16.902;2023-05-20T03:25:03;101686.94;;;16.68;53.50
61026;BME280;46911;32.650;-16.902;2023-05-20T03:27:06;101668.06;;;16.57;53.14
61026;BME280;46911;32.650;-16.902;2023-05-20T03:29:09;101663.78;;;16.54;53.03
61026;BME280;46911;32.650;-16.902;2023-05-20T03:31:13;101685.34;;;16.77;52.55
61026;BME280;46911;32.650;-16.902;2023-05-20T03:33:14;101686.31;;;16.76;52.35
61026;BME280;46911;32.650;-16.902;2023-05-20T03:35:17;101683.63;;;16.76;52.27
61026;BME280;46911;32.650;-16.902;2023-05-20T03:37:21;101665.00;;;16.62;52.46
61026;BME280;46911;32.650;-16.902;2023-05-20T03:39:24;101678.84;;;16.68;52.63
61026;BME280;46911;32.650;-16.902;2023-05-20T03:41:25;101683.25;;;16.69;52.85
61026;BME280;46911;32.650;-16.902;2023-05-20T03:43:26;101657.00;;;16.49;53.22
61026;BME280;46911;32.650;-16.902;2023-05-20T03:45:30;101666.09;;;16.48;53.28
61026;BME280;46911;32.650;-16.902;2023-05-20T03:47:37;101678.22;;;16.53;53.23
61026;BME280;46911;32.650;-16.902;2023-05-20T03:49:39;101685.31;;;16.54;53.18
61026;BME280;46911;32.650;-16.902;2023-05-20T03:51:43;101677.13;;;16.56;53.14
61026;BME280;46911;32.650;-16.902;2023-05-20T03:53:46;101666.34;;;16.56;52.95
61026;BME280;46911;32.650;-16.902;2023-05-20T03:55:52;101650.28;;;16.43;53.20
61026;BME280;46911;32.650;-16.902;2023-05-20T03:57:54;101670.25;;;16.52;53.58
61026;BME280;46911;32.650;-16.902;2023-05-20T03:59:55;101673.28;;;16.47;53.92
61026;BME280;46911;32.650;-16.902;2023-05-20T04:01:56;101673.81;;;16.52;53.87
61026;BME280;46911;32.650;-16.902;2023-05-20T04:03:57;101662.56;;;16.70;52.31
61026;BME280;46911;32.650;-16.902;2023-05-20T04:05:58;101650.31;;;16.66;52.26
61026;BME280;46911;32.650;-16.902;2023-05-20T04:08:04;101661.59;;;16.71;52.54
61026;BME280;46911;32.650;-16.902;2023-05-20T04:10:05;101661.84;;;16.68;52.33
61026;BME280;46911;32.650;-16.902;2023-05-20T04:12:09;101661.97;;;16.66;52.42
61026;BME280;46911;32.650;-16.902;2023-05-20T04:14:10;101658.88;;;16.60;52.52
61026;BME280;46911;32.650;-16.902;2023-05-20T04:16:11;101635.47;;;16.49;52.58
61026;BME280;46911;32.650;-16.902;2023-05-20T04:18:13;101662.44;;;16.60;52.34
61026;BME280;46911;32.650;-16.902;2023-05-20T04:20:15;101665.38;;;16.68;52.17
61026;BME280;46911;32.650;-16.902;2023-05-20T04:22:21;101660.88;;;16.69;52.04
61026;BME280;46911;32.650;-16.902;2023-05-20T04:24:22;101655.47;;;16.80;52.07
61026;BME280;46911;32.650;-16.902;2023-05-20T04:26:27;101659.50;;;16.74;52.09
61026;BME280;46911;32.650;-16.902;2023-05-20T04:28:29;101647.41;;;16.69;52.07
61026;BME280;46911;32.650;-16.902;2023-05-20T04:30:34;101631.81;;;16.72;51.62
61026;BME280;46911;32.650;-16.902;2023-05-20T04:32:38;101650.97;;;16.92;51.45
61026;BME280;46911;32.650;-16.902;2023-05-20T04:34:39;101651.34;;;16.99;51.20
61026;BME280;46911;32.650;-16.902;2023-05-20T04:36:45;101642.75;;;16.94;51.03
61026;BME280;46911;32.650;-16.902;2023-05-20T04:38:48;101597.06;;;16.69;50.77
61026;BME280;46911;32.650;-16.902;2023-05-20T04:40:49;101639.09;;;16.95;50.75
61026;BME280;46911;32.650;-16.902;2023-05-20T04:42:50;101629.84;;;16.86;50.71
61026;BME280;46911;32.650;-16.902;2023-05-20T04:44:56;101644.59;;;16.93;50.30
61026;BME280;46911;32.650;-16.902;2023-05-20T04:47:04;101618.13;;;16.76;50.25
61026;BME280;46911;32.650;-16.902;2023-05-20T04:49:10;101586.25;;;16.58;49.58
61026;BME280;46911;32.650;-16.902;2023-05-20T04:51:11;101611.25;;;16.83;49.16
61026;BME280;46911;32.650;-16.902;2023-05-20T04:53:15;101620.81;;;16.87;48.91
61026;BME280;46911;32.650;-16.902;2023-05-20T04:55:17;101582.84;;;16.67;48.71
61026;BME280;46911;32.650;-16.902;2023-05-20T04:57:19;101634.53;;;16.95;48.73
61026;BME280;46911;32.650;-16.902;2023-05-20T04:59:21;101633.97;;;16.92;48.97
61026;BME280;46911;32.650;-16.902;2023-05-20T05:01:24;101623.97;;;16.81;48.79
61026;BME280;46911;32.650;-16.902;2023-05-20T05:03:25;101615.19;;;16.79;48.85
61026;BME280;46911;32.650;-16.902;2023-05-20T05:05:26;101633.44;;;16.86;49.04
61026;BME280;46911;32.650;-16.902;2023-05-20T05:07:30;101626.94;;;16.78;48.96
61026;BME280;46911;32.650;-16.902;2023-05-20T05:09:34;101633.66;;;16.83;49.04
61026;BME280;46911;32.650;-16.902;2023-05-20T05:11:37;101641.59;;;16.85;48.80
61026;BME280;46911;32.650;-16.902;2023-05-20T05:13:40;101637.44;;;16.81;48.86
61026;BME280;46911;32.650;-16.902;2023-05-20T05:15:43;101638.56;;;16.78;49.50
61026;BME280;46911;32.650;-16.902;2023-05-20T05:17:47;101607.59;;;16.61;49.78
61026;BME280;46911;32.650;-16.902;2023-05-20T05:19:51;101620.19;;;16.61;50.16
61026;BME280;46911;32.650;-16.902;2023-05-20T05:21:54;101617.00;;;16.67;50.45
61026;BME280;46911;32.650;-16.902;2023-05-20T05:23:59;101608.81;;;16.57;50.23
61026;BME280;46911;32.650;-16.902;2023-05-20T05:26:00;101626.94;;;16.66;50.22
61026;BME280;46911;32.650;-16.902;2023-05-20T05:28:01;101631.94;;;16.71;49.69
61026;BME280;46911;32.650;-16.902;2023-05-20T05:30:05;101627.41;;;16.71;49.27
61026;BME280;46911;32.650;-16.902;2023-05-20T05:32:09;101632.06;;;16.69;49.42
61026;BME280;46911;32.650;-16.902;2023-05-20T05:34:10;101625.09;;;16.67;49.97
61026;BME280;46911;32.650;-16.902;2023-05-20T05:36:11;101629.00;;;16.63;49.99
61026;BME280;46911;32.650;-16.902;2023-05-20T05:38:14;101626.66;;;16.58;49.98
61026;BME280;46911;32.650;-16.902;2023-05-20T05:40:20;101623.34;;;16.43;50.37
61026;BME280;46911;32.650;-16.902;2023-05-20T05:42:24;101638.91;;;16.51;49.95
61026;BME280;46911;32.650;-16.902;2023-05-20T05:44:26;101611.09;;;16.28;50.27
61026;BME280;46911;32.650;-16.902;2023-05-20T05:46:29;101612.41;;;16.22;50.65
61026;BME280;46911;32.650;-16.902;2023-05-20T05:48:31;101609.63;;;16.35;50.07
61026;BME280;46911;32.650;-16.902;2023-05-20T05:50:31;101629.97;;;16.39;50.16
61026;BME280;46911;32.650;-16.902;2023-05-20T05:52:35;101630.94;;;16.38;50.47
61026;BME280;46911;32.650;-16.902;2023-05-20T05:54:37;101617.47;;;16.27;50.48
61026;BME280;46911;32.650;-16.902;2023-05-20T05:56:38;101629.69;;;16.31;50.91
61026;BME280;46911;32.650;-16.902;2023-05-20T05:58:39;101626.63;;;16.35;51.10
61026;BME280;46911;32.650;-16.902;2023-05-20T06:00:49;101632.78;;;16.37;51.13
61026;BME280;46911;32.650;-16.902;2023-05-20T06:02:52;101631.06;;;16.36;51.53
61026;BME280;46911;32.650;-16.902;2023-05-20T06:05:16;101612.56;;;16.43;50.74
61026;BME280;46911;32.650;-16.902;2023-05-20T06:07:20;101632.94;;;16.59;50.46
61026;BME280;46911;32.650;-16.902;2023-05-20T06:09:21;101626.44;;;16.61;50.39
61026;BME280;46911;32.650;-16.902;2023-05-20T06:11:22;101614.94;;;16.70;50.65
61026;BME280;46911;32.650;-16.902;2023-05-20T06:13:23;101628.88;;;16.87;50.49
61026;BME280;46911;32.650;-16.902;2023-05-20T06:15:27;101630.38;;;16.91;50.37
61026;BME280;46911;32.650;-16.902;2023-05-20T06:17:28;101607.94;;;16.79;50.24
61026;BME280;46911;32.650;-16.902;2023-05-20T06:19:34;101635.91;;;16.89;50.11
61026;BME280;46911;32.650;-16.902;2023-05-20T06:21:35;101634.41;;;16.85;49.98
61026;BME280;46911;32.650;-16.902;2023-05-20T06:23:38;101631.34;;;16.90;49.39
61026;BME280;46911;32.650;-16.902;2023-05-20T06:25:43;101618.63;;;16.92;49.13
61026;BME280;46911;32.650;-16.902;2023-05-20T06:27:44;101640.81;;;16.96;49.07
61026;BME280;46911;32.650;-16.902;2023-05-20T06:29:48;101626.44;;;16.84;48.91
61026;BME280;46911;32.650;-16.902;2023-05-20T06:31:49;101622.53;;;16.88;48.76
61026;BME280;46911;32.650;-16.902;2023-05-20T06:33:50;101635.91;;;16.89;48.73
61026;BME280;46911;32.650;-16.902;2023-05-20T06:35:51;101639.78;;;16.85;48.93
61026;BME280;46911;32.650;-16.902;2023-05-20T06:37:54;101636.41;;;16.95;47.50
61026;BME280;46911;32.650;-16.902;2023-05-20T06:39:58;101636.00;;;16.99;47.25
61026;BME280;46911;32.650;-16.902;2023-05-20T06:42:04;101611.66;;;16.89;46.72
61026;BME280;46911;32.650;-16.902;2023-05-20T06:44:10;101612.50;;;17.01;46.26
61026;BME280;46911;32.650;-16.902;2023-05-20T06:46:45;101607.94;;;17.02;46.36
61026;BME280;46911;32.650;-16.902;2023-05-20T06:48:49;101636.38;;;17.17;46.05
61026;BME280;46911;32.650;-16.902;2023-05-20T06:50:50;101641.38;;;17.22;45.18
61026;BME280;46911;32.650;-16.902;2023-05-20T06:52:54;101634.53;;;17.18;45.52
61026;BME280;46911;32.650;-16.902;2023-05-20T06:54:55;101634.91;;;17.13;45.51
61026;BME280;46911;32.650;-16.902;2023-05-20T06:57:00;101631.34;;;17.13;45.49
61026;BME280;46911;32.650;-16.902;2023-05-20T06:59:01;101641.75;;;17.17;45.59
61026;BME280;46911;32.650;-16.902;2023-05-20T07:01:03;101652.25;;;17.43;45.19
61026;BME280;46911;32.650;-16.902;2023-05-20T07:03:10;101648.91;;;17.51;44.88
61026;BME280;46911;32.650;-16.902;2023-05-20T07:05:17;101649.53;;;17.54;45.26
61026;BME280;46911;32.650;-16.902;2023-05-20T07:07:26;101628.59;;;17.47;45.23
61026;BME280;46911;32.650;-16.902;2023-05-20T07:09:27;101628.94;;;17.53;44.63
61026;BME280;46911;32.650;-16.902;2023-05-20T07:11:28;101623.63;;;17.63;44.47
61026;BME280;46911;32.650;-16.902;2023-05-20T07:13:34;101639.97;;;17.83;43.43
61026;BME280;46911;32.650;-16.902;2023-05-20T07:15:35;101639.25;;;17.92;43.08
61026;BME280;46911;32.650;-16.902;2023-05-20T07:17:38;101630.38;;;17.90;43.19
61026;BME280;46911;32.650;-16.902;2023-05-20T07:19:41;101616.72;;;17.91;42.71
61026;BME280;46911;32.650;-16.902;2023-05-20T07:21:45;101621.38;;;18.01;43.17
61026;BME280;46911;32.650;-16.902;2023-05-20T07:24:05;101634.06;;;18.21;41.78
61026;BME280;46911;32.650;-16.902;2023-05-20T07:26:06;101618.97;;;18.19;42.27
61026;BME280;46911;32.650;-16.902;2023-05-20T07:28:07;101626.84;;;18.32;42.54
61026;BME280;46911;32.650;-16.902;2023-05-20T07:30:12;101632.19;;;18.43;43.22
61026;BME280;46911;32.650;-16.902;2023-05-20T07:32:19;101639.44;;;18.43;43.30
61026;BME280;46911;32.650;-16.902;2023-05-20T07:34:20;101646.16;;;18.48;43.62
61026;BME280;46911;32.650;-16.902;2023-05-20T07:36:25;101643.91;;;18.53;43.74
61026;BME280;46911;32.650;-16.902;2023-05-20T07:38:27;101633.50;;;18.49;43.76
61026;BME280;46911;32.650;-16.902;2023-05-20T07:40:38;101640.63;;;18.50;44.46
61026;BME280;46911;32.650;-16.902;2023-05-20T07:42:44;101634.22;;;18.51;44.46
61026;BME280;46911;32.650;-16.902;2023-05-20T07:44:48;101640.25;;;18.64;44.56
61026;BME280;46911;32.650;-16.902;2023-05-20T07:46:49;101624.44;;;18.60;44.06
61026;BME280;46911;32.650;-16.902;2023-05-20T07:48:50;101626.63;;;18.66;43.74
61026;BME280;46911;32.650;-16.902;2023-05-20T07:50:51;101644.31;;;18.80;43.75
61026;BME280;46911;32.650;-16.902;2023-05-20T07:52:55;101646.22;;;18.89;43.54
61026;BME280;46911;32.650;-16.902;2023-05-20T07:54:59;101627.56;;;18.86;43.82
61026;BME280;46911;32.650;-16.902;2023-05-20T07:57:02;101648.56;;;19.03;43.42
61026;BME280;46911;32.650;-16.902;2023-05-20T07:59:05;101637.88;;;19.02;43.34
61026;BME280;46911;32.650;-16.902;2023-05-20T08:01:12;101632.50;;;19.12;43.11
61026;BME280;46911;32.650;-16.902;2023-05-20T08:03:15;101649.91;;;19.29;42.58
61026;BME280;46911;32.650;-16.902;2023-05-20T08:05:36;101640.22;;;19.26;42.15
61026;BME280;46911;32.650;-16.902;2023-05-20T08:07:41;101634.00;;;19.35;42.38
61026;BME280;46911;32.650;-16.902;2023-05-20T08:09:45;101653.09;;;19.53;42.31
61026;BME280;46911;32.650;-16.902;2023-05-20T08:11:48;101643.44;;;19.61;41.97
61026;BME280;46911;32.650;-16.902;2023-05-20T08:13:56;101649.56;;;19.72;42.03
61026;BME280;46911;32.650;-16.902;2023-05-20T08:16:01;101646.84;;;19.72;41.88
61026;BME280;46911;32.650;-16.902;2023-05-20T08:18:03;101635.72;;;19.76;42.04
61026;BME280;46911;32.650;-16.902;2023-05-20T08:20:05;101647.91;;;19.91;42.03
61026;BME280;46911;32.650;-16.902;2023-05-20T08:22:11;101630.91;;;19.89;41.92
61026;BME280;46911;32.650;-16.902;2023-05-20T08:24:15;101648.88;;;20.10;41.39
61026;BME280;46911;32.650;-16.902;2023-05-20T08:26:21;101637.75;;;20.03;40.98
61026;BME280;46911;32.650;-16.902;2023-05-20T08:28:29;101631.75;;;20.09;41.04
61026;BME280;46911;32.650;-16.902;2023-05-20T08:30:34;101624.06;;;20.04;41.88
61026;BME280;46911;32.650;-16.902;2023-05-20T08:32:35;101633.91;;;20.15;41.26
61026;BME280;46911;32.650;-16.902;2023-05-20T08:34:42;101642.28;;;20.22;41.37
61026;BME280;46911;32.650;-16.902;2023-05-20T08:36:45;101642.53;;;20.38;41.10
61026;BME280;46911;32.650;-16.902;2023-05-20T08:38:49;101629.91;;;20.10;40.28
61026;BME280;46911;32.650;-16.902;2023-05-20T08:40:54;101624.50;;;20.00;40.46
61026;BME280;46911;32.650;-16.902;2023-05-20T08:42:55;101628.63;;;20.04;40.20
61026;BME280;46911;32.650;-16.902;2023-05-20T08:45:03;101643.13;;;20.22;40.59
61026;BME280;46911;32.650;-16.902;2023-05-20T08:47:07;101637.44;;;20.16;41.87
61026;BME280;46911;32.650;-16.902;2023-05-20T08:49:10;101628.75;;;20.22;42.36
61026;BME280;46911;32.650;-16.902;2023-05-20T08:51:12;101644.13;;;20.31;43.19
61026;BME280;46911;32.650;-16.902;2023-05-20T08:53:19;101644.41;;;20.28;42.79
61026;BME280;46911;32.650;-16.902;2023-05-20T08:57:37;101633.03;;;20.05;43.05
61026;BME280;46911;32.650;-16.902;2023-05-20T08:59:42;101649.16;;;20.16;43.30
61026;BME280;46911;32.650;-16.902;2023-05-20T09:01:46;101624.06;;;20.14;42.39
61026;BME280;46911;32.650;-16.902;2023-05-20T09:03:49;101642.53;;;20.38;43.01
61026;BME280;46911;32.650;-16.902;2023-05-20T09:06:05;101632.84;;;20.36;43.07
61026;BME280;46911;32.650;-16.902;2023-05-20T09:08:07;101645.66;;;20.44;43.94
61026;BME280;46911;32.650;-16.902;2023-05-20T09:10:08;101652.97;;;20.43;43.43
61026;BME280;46911;32.650;-16.902;2023-05-20T09:12:10;101637.34;;;20.55;42.60
61026;BME280;46911;32.650;-16.902;2023-05-20T09:14:11;101658.56;;;21.17;42.09
61026;BME280;46911;32.650;-16.902;2023-05-20T09:16:12;101644.06;;;21.54;41.10
61026;BME280;46911;32.650;-16.902;2023-05-20T09:18:18;101630.50;;;21.72;40.38
61026;BME280;46911;32.650;-16.902;2023-05-20T09:20:21;101638.44;;;22.28;39.18
61026;BME280;46911;32.650;-16.902;2023-05-20T09:22:27;101634.50;;;21.86;39.54
61026;BME280;46911;32.650;-16.902;2023-05-20T09:24:31;101623.53;;;22.14;39.67
61026;BME280;46911;32.650;-16.902;2023-05-20T09:26:38;101620.03;;;22.39;39.25
61026;BME280;46911;32.650;-16.902;2023-05-20T09:28:42;101627.22;;;22.31;38.53
61026;BME280;46911;32.650;-16.902;2023-05-20T09:30:45;101644.28;;;22.67;38.46
61026;BME280;46911;32.650;-16.902;2023-05-20T09:32:54;101645.28;;;23.35;37.06
61026;BME280;46911;32.650;-16.902;2023-05-20T09:34:58;101629.00;;;23.68;36.90
61026;BME280;46911;32.650;-16.902;2023-05-20T09:37:05;101626.84;;;24.13;35.15
61026;BME280;46911;32.650;-16.902;2023-05-20T09:39:14;101634.78;;;24.39;34.91
61026;BME280;46911;32.650;-16.902;2023-05-20T09:41:23;101630.84;;;24.50;34.60
61026;BME280;46911;32.650;-16.902;2023-05-20T09:43:29;101622.69;;;24.42;35.42
61026;BME280;46911;32.650;-16.902;2023-05-20T09:45:30;101615.16;;;23.37;36.39
61026;BME280;46911;32.650;-16.902;2023-05-20T09:47:37;101615.34;;;23.35;36.71
61026;BME280;46911;32.650;-16.902;2023-05-20T09:49:45;101626.69;;;22.80;37.93
61026;BME280;46911;32.650;-16.902;2023-05-20T09:51:50;101620.41;;;22.87;40.21
61026;BME280;46911;32.650;-16.902;2023-05-20T09:53:52;101632.00;;;23.32;39.46
61026;BME280;46911;32.650;-16.902;2023-05-20T09:55:57;101620.94;;;23.34;39.03
61026;BME280;46911;32.650;-16.902;2023-05-20T09:58:03;101620.16;;;23.83;37.75
61026;BME280;46911;32.650;-16.902;2023-05-20T10:00:07;101630.41;;;24.05;36.86
61026;BME280;46911;32.650;-16.902;2023-05-20T10:02:15;101645.28;;;23.01;38.50
61026;BME280;46911;32.650;-16.902;2023-05-20T10:04:20;101633.69;;;23.25;38.96
61026;BME280;46911;32.650;-16.902;2023-05-20T10:14:05;101632.03;;;23.57;38.35
61026;BME280;46911;32.650;-16.902;2023-05-20T10:16:37;101630.53;;;23.54;38.76
61026;BME280;46911;32.650;-16.902;2023-05-20T10:21:24;101619.41;;;23.31;37.86
61026;BME280;46911;32.650;-16.902;2023-05-20T10:23:32;101590.66;;;23.29;36.97
61026;BME280;46911;32.650;-16.902;2023-05-20T10:25:33;101629.28;;;23.24;38.74
61026;BME280;46911;32.650;-16.902;2023-05-20T10:27:47;101630.03;;;23.08;38.85
61026;BME280;46911;32.650;-16.902;2023-05-20T10:29:55;101634.47;;;23.09;39.04
61026;BME280;46911;32.650;-16.902;2023-05-20T10:31:59;101626.41;;;23.50;38.91
61026;BME280;46911;32.650;-16.902;2023-05-20T10:34:02;101631.88;;;24.41;36.63
61026;BME280;46911;32.650;-16.902;2023-05-20T10:36:07;101623.94;;;24.15;37.13
61026;BME280;46911;32.650;-16.902;2023-05-20T10:38:10;101639.75;;;24.44;35.78
61026;BME280;46911;32.650;-16.902;2023-05-20T10:40:13;101643.00;;;23.90;37.55
61026;BME280;46911;32.650;-16.902;2023-05-20T10:42:28;101631.59;;;24.03;37.05
61026;BME280;46911;32.650;-16.902;2023-05-20T10:44:42;101649.81;;;23.94;37.16